Iron Mountain, South Dakota
Current Conditions -  °F | °C
As of 1:55 AM on Thursday 23 Oct 2014 (Local Time) from K9V9 Reporting Station
Clear Clear  
Wind Chill: 38°   Ceiling: Unl
Heat Index: 42°   Visibility: 10mi
Dew Point: 39°   Wind: 6mph
Humidity: 88%   Direction: 280°W
Pressure: 30.01"   Gusts: NA
Location:  43.8859°N, 99.8336°W
Report Text: K9V9 230655Z AUTO 28005KT 10SM CLR 06/04 A3001 RMK AO2 T00560037
Loading
Personal Weather Stations






























Interactive Weather Map
Tropical Storm Tracking
New forecast layout! Learn more

10-Day Weather Forecast

Advertisements
Track Severe Weather on mobile